createdAt,value
2018-06-13T00:00:09.671Z,0
2018-06-13T00:01:18.318Z,0
2018-06-13T00:02:26.963Z,0
2018-06-13T00:03:35.877Z,0
2018-06-13T00:04:44.519Z,0
2018-06-13T00:05:53.163Z,0
2018-06-13T00:07:01.804Z,0
2018-06-13T00:08:10.713Z,0
2018-06-13T00:09:19.362Z,0
2018-06-13T00:10:28.020Z,0
2018-06-13T00:11:36.656Z,0
2018-06-13T00:12:45.295Z,0
2018-06-13T00:13:54.208Z,0
2018-06-13T00:15:02.852Z,0
2018-06-13T00:16:11.761Z,0
2018-06-13T00:17:20.402Z,0
2018-06-13T00:18:29.053Z,0
2018-06-13T00:19:37.696Z,0
2018-06-13T00:20:46.342Z,0
2018-06-13T00:21:54.983Z,0
2018-06-13T00:23:03.679Z,0
2018-06-13T00:24:12.540Z,0
2018-06-13T00:25:21.449Z,0
2018-06-13T00:26:30.365Z,0
2018-06-13T00:27:39.001Z,0
2018-06-13T00:28:47.655Z,0
2018-06-13T00:29:56.294Z,0
2018-06-13T00:31:04.948Z,0
2018-06-13T00:32:13.583Z,0
2018-06-13T00:33:22.503Z,0
2018-06-13T00:34:31.143Z,0
2018-06-13T00:35:39.798Z,0
2018-06-13T00:36:48.756Z,0
2018-06-13T00:37:57.368Z,0
2018-06-13T00:39:06.015Z,0
2018-06-13T00:40:14.667Z,0
2018-06-13T00:41:23.308Z,0
2018-06-13T00:42:32.476Z,0
2018-06-13T00:43:41.382Z,0
2018-06-13T00:44:50.288Z,0
2018-06-13T00:45:58.941Z,0
2018-06-13T00:47:07.582Z,0
2018-06-13T00:48:16.234Z,0
2018-06-13T00:49:25.134Z,0
2018-06-13T00:50:33.788Z,0
2018-06-13T00:51:42.427Z,0
2018-06-13T00:52:51.079Z,0
2018-06-13T00:53:59.715Z,0
2018-06-13T00:55:08.372Z,0
2018-06-13T00:56:17.017Z,0
2018-06-13T00:57:25.666Z,0
2018-06-13T00:58:34.301Z,0
2018-06-13T00:59:43.210Z,0
2018-06-13T01:00:51.861Z,0
2018-06-13T01:02:00.508Z,0
2018-06-13T01:03:09.160Z,0
2018-06-13T01:04:17.795Z,0
2018-06-13T01:05:26.710Z,0
2018-06-13T01:06:35.350Z,0
2018-06-13T01:07:44.270Z,0
2018-06-13T01:08:52.913Z,0
2018-06-13T01:10:01.559Z,0
2018-06-13T01:11:10.198Z,0
2018-06-13T01:12:18.851Z,0
2018-06-13T01:13:27.486Z,0
2018-06-13T01:14:36.136Z,0
2018-06-13T01:15:45.059Z,0
2018-06-13T01:16:54.242Z,0
2018-06-13T01:18:02.884Z,0
2018-06-13T01:19:11.791Z,0
2018-06-13T01:20:20.434Z,0
2018-06-13T01:21:29.076Z,0
2018-06-13T01:22:37.731Z,0
2018-06-13T01:23:46.372Z,0
2018-06-13T01:24:55.277Z,0
2018-06-13T01:26:03.917Z,0
2018-06-13T01:27:12.566Z,0
2018-06-13T01:28:21.211Z,0
2018-06-13T01:29:29.860Z,0
2018-06-13T01:30:38.500Z,0
2018-06-13T01:31:47.159Z,0
2018-06-13T01:32:55.801Z,0
2018-06-13T01:34:04.450Z,0
2018-06-13T01:35:13.090Z,0
2018-06-13T01:36:21.737Z,0
2018-06-13T01:37:30.385Z,0
2018-06-13T01:38:39.033Z,0
2018-06-13T01:39:47.685Z,0
2018-06-13T01:40:56.321Z,0
2018-06-13T01:42:04.968Z,0
2018-06-13T01:43:13.611Z,0
2018-06-13T01:44:22.259Z,0
2018-06-13T01:45:30.901Z,0
2018-06-13T01:46:39.546Z,0
2018-06-13T01:47:48.191Z,0
2018-06-13T01:48:56.849Z,0
2018-06-13T01:50:05.489Z,0
2018-06-13T01:51:14.131Z,0
2018-06-13T01:52:22.773Z,0
2018-06-13T01:53:31.422Z,0
2018-06-13T01:54:40.069Z,0
2018-06-13T01:55:48.709Z,0
2018-06-13T01:56:57.354Z,0
2018-06-13T01:58:05.995Z,0
2018-06-13T01:59:14.656Z,0
2018-06-13T02:00:23.292Z,0
2018-06-13T02:01:31.935Z,0
2018-06-13T02:02:40.573Z,0
2018-06-13T02:03:49.222Z,0
2018-06-13T02:04:57.871Z,0
2018-06-13T02:06:06.786Z,0
2018-06-13T02:07:15.425Z,0
2018-06-13T02:08:24.337Z,0
2018-06-13T02:09:32.978Z,0
2018-06-13T02:10:41.625Z,0
2018-06-13T02:11:50.263Z,0
2018-06-13T02:12:58.910Z,0
2018-06-13T02:14:07.555Z,0
2018-06-13T02:15:16.467Z,0
2018-06-13T02:16:25.115Z,0
2018-06-13T02:17:33.756Z,0
2018-06-13T02:18:42.668Z,0
2018-06-13T02:19:51.573Z,0
2018-06-13T02:21:00.223Z,0
2018-06-13T02:22:08.863Z,0
2018-06-13T02:23:17.515Z,0
2018-06-13T02:24:26.152Z,0
2018-06-13T02:25:34.797Z,0
2018-06-13T02:26:43.447Z,0
2018-06-13T02:27:52.090Z,0
2018-06-13T02:29:00.736Z,0
2018-06-13T02:30:09.644Z,0
2018-06-13T02:31:18.294Z,0
2018-06-13T02:32:26.939Z,0
2018-06-13T02:33:35.589Z,0
2018-06-13T02:34:44.509Z,0
2018-06-13T02:35:53.146Z,0
2018-06-13T02:37:01.790Z,0
2018-06-13T02:38:10.435Z,0
2018-06-13T02:39:19.353Z,0
2018-06-13T02:40:27.996Z,0
2018-06-13T02:41:36.642Z,0
2018-06-13T02:42:45.289Z,0
2018-06-13T02:43:53.950Z,0
2018-06-13T02:45:02.590Z,0
2018-06-13T02:46:11.505Z,0
2018-06-13T02:47:20.409Z,0
2018-06-13T02:48:29.062Z,0
2018-06-13T02:49:37.971Z,0
2018-06-13T02:50:47.151Z,0
2018-06-13T02:51:55.789Z,0
2018-06-13T02:53:04.701Z,0
2018-06-13T02:54:13.615Z,0
2018-06-13T02:55:22.275Z,0
2018-06-13T02:56:30.930Z,0
2018-06-13T02:57:39.855Z,0
2018-06-13T02:58:49.034Z,0
2018-06-13T02:59:58.037Z,0
2018-06-13T03:01:06.917Z,0
2018-06-13T03:02:15.799Z,0
2018-06-13T03:03:24.716Z,0
2018-06-13T03:04:33.358Z,0
2018-06-13T03:05:42.267Z,0
2018-06-13T03:06:51.174Z,0
2018-06-13T03:07:59.825Z,0
2018-06-13T03:09:08.738Z,0
2018-06-13T03:10:17.384Z,0
2018-06-13T03:11:26.037Z,0
2018-06-13T03:12:34.945Z,0
2018-06-13T03:13:43.596Z,0
2018-06-13T03:14:52.243Z,0
2018-06-13T03:16:00.899Z,0
2018-06-13T03:17:09.540Z,0
2018-06-13T03:18:18.184Z,0
2018-06-13T03:19:26.830Z,0
2018-06-13T03:20:35.482Z,0
2018-06-13T03:21:44.118Z,0
2018-06-13T03:22:52.767Z,0
2018-06-13T03:24:01.411Z,0
2018-06-13T03:25:10.063Z,0
2018-06-13T03:26:18.709Z,0
2018-06-13T03:27:27.350Z,0
2018-06-13T03:28:36.008Z,0
2018-06-13T03:29:44.638Z,0
2018-06-13T03:30:53.844Z,0
2018-06-13T03:32:02.768Z,0
2018-06-13T03:33:11.421Z,5
2018-06-13T03:34:20.067Z,5
2018-06-13T03:35:28.721Z,5
2018-06-13T03:36:37.361Z,5
2018-06-13T03:37:46.010Z,5
2018-06-13T03:38:54.646Z,5
2018-06-13T03:40:03.298Z,5
2018-06-13T03:41:11.994Z,5
2018-06-13T03:42:20.588Z,5
2018-06-13T03:43:29.224Z,5
2018-06-13T03:44:37.869Z,5
2018-06-13T03:45:46.519Z,5
2018-06-13T03:46:55.429Z,10
2018-06-13T03:48:04.078Z,10
2018-06-13T03:49:12.974Z,15
2018-06-13T03:50:21.895Z,15
2018-06-13T03:51:30.535Z,15
2018-06-13T03:52:39.226Z,15
2018-06-13T03:53:48.088Z,15
2018-06-13T03:54:57.031Z,15
2018-06-13T03:56:05.932Z,15
2018-06-13T03:57:14.585Z,15
2018-06-13T03:58:23.485Z,15
2018-06-13T03:59:32.129Z,15
2018-06-13T04:00:41.033Z,15
2018-06-13T04:01:49.784Z,15
2018-06-13T04:02:58.334Z,15
2018-06-13T04:04:06.971Z,20
2018-06-13T04:05:15.612Z,20
2018-06-13T04:06:24.254Z,20
2018-06-13T04:07:32.911Z,20
2018-06-13T04:08:41.552Z,20
2018-06-13T04:09:50.202Z,15
2018-06-13T04:10:58.838Z,15
2018-06-13T04:12:07.489Z,20
2018-06-13T04:13:16.400Z,20
2018-06-13T04:14:25.048Z,25
2018-06-13T04:15:33.682Z,30
2018-06-13T04:16:42.337Z,35
2018-06-13T04:17:51.246Z,40
2018-06-13T04:18:59.894Z,40
2018-06-13T04:20:08.818Z,40
2018-06-13T04:21:17.467Z,35
2018-06-13T04:22:26.171Z,35
2018-06-13T04:23:34.765Z,30
2018-06-13T04:24:43.411Z,30
2018-06-13T04:25:52.046Z,30
2018-06-13T04:27:00.695Z,35
2018-06-13T04:28:09.336Z,35
2018-06-13T04:29:18.262Z,35
2018-06-13T04:30:26.897Z,30
2018-06-13T04:31:35.547Z,30
2018-06-13T04:32:44.559Z,30
2018-06-13T04:33:53.133Z,30
2018-06-13T04:35:01.772Z,35
2018-06-13T04:36:10.691Z,30
2018-06-13T04:37:19.332Z,30
2018-06-13T04:38:28.244Z,30
2018-06-13T04:39:37.150Z,30
2018-06-13T04:40:45.789Z,25
2018-06-13T04:41:54.494Z,30
2018-06-13T04:43:03.340Z,30
2018-06-13T04:44:11.993Z,40
2018-06-13T04:45:20.635Z,45
2018-06-13T04:46:29.283Z,45
2018-06-13T04:47:37.920Z,45
2018-06-13T04:48:46.576Z,45
2018-06-13T04:49:55.215Z,50
2018-06-13T04:51:03.865Z,55
2018-06-13T04:52:12.501Z,50
2018-06-13T04:53:21.438Z,45
2018-06-13T04:54:30.339Z,50
2018-06-13T04:55:38.987Z,60
2018-06-13T04:56:47.626Z,70
2018-06-13T04:57:56.277Z,80
2018-06-13T04:59:04.928Z,85
2018-06-13T05:00:13.573Z,85
2018-06-13T05:01:22.220Z,90
2018-06-13T05:02:30.855Z,90
2018-06-13T05:03:39.506Z,90
2018-06-13T05:04:48.936Z,90
2018-06-13T05:05:57.593Z,90
2018-06-13T05:07:06.230Z,90
2018-06-13T05:08:14.879Z,90
2018-06-13T05:09:23.519Z,90
2018-06-13T05:10:32.172Z,95
2018-06-13T05:11:40.801Z,95
2018-06-13T05:12:49.711Z,95
2018-06-13T05:13:58.352Z,100
2018-06-13T05:15:07.007Z,100
2018-06-13T05:16:15.648Z,100
2018-06-13T05:17:24.290Z,95
2018-06-13T05:18:32.939Z,90
2018-06-13T05:19:41.581Z,85
2018-06-13T05:20:50.230Z,75
2018-06-13T05:21:58.875Z,70
2018-06-13T05:23:07.519Z,75
2018-06-13T05:24:16.160Z,75
2018-06-13T05:25:24.808Z,75
2018-06-13T05:26:33.456Z,85
2018-06-13T05:27:42.109Z,85
2018-06-13T05:28:51.018Z,85
2018-06-13T05:29:59.661Z,90
2018-06-13T05:31:08.309Z,100
2018-06-13T05:32:16.952Z,105
2018-06-13T05:33:25.593Z,110
2018-06-13T05:34:34.245Z,110
2018-06-13T05:35:42.892Z,115
2018-06-13T05:36:51.540Z,120
2018-06-13T05:38:00.186Z,120
2018-06-13T05:39:08.831Z,120
2018-06-13T05:40:17.477Z,110
2018-06-13T05:41:26.385Z,100
2018-06-13T05:42:35.036Z,95
2018-06-13T05:43:43.677Z,90
2018-06-13T05:44:52.587Z,85
2018-06-13T05:46:01.499Z,90
2018-06-13T05:47:10.149Z,90
2018-06-13T05:48:18.792Z,90
2018-06-13T05:49:27.441Z,90
2018-06-13T05:50:36.083Z,90
2018-06-13T05:51:44.735Z,85
2018-06-13T05:52:53.376Z,85
2018-06-13T05:54:02.023Z,85
2018-06-13T05:55:10.941Z,80
2018-06-13T05:56:19.584Z,80
2018-06-13T05:57:28.263Z,80
2018-06-13T05:58:36.910Z,80
2018-06-13T05:59:45.822Z,85
2018-06-13T06:00:54.465Z,90
2018-06-13T06:02:03.115Z,95
2018-06-13T06:03:11.760Z,105
2018-06-13T06:04:20.407Z,110
2018-06-13T06:05:29.046Z,115
2018-06-13T06:06:37.959Z,125
2018-06-13T06:07:46.599Z,135
2018-06-13T06:08:55.248Z,140
2018-06-13T06:10:03.886Z,155
2018-06-13T06:11:12.533Z,155
2018-06-13T06:12:21.181Z,150
2018-06-13T06:13:29.827Z,145
2018-06-13T06:14:38.474Z,140
2018-06-13T06:15:47.117Z,140
2018-06-13T06:16:55.774Z,145
2018-06-13T06:18:04.682Z,150
2018-06-13T06:19:13.323Z,145
2018-06-13T06:20:21.973Z,140
2018-06-13T06:21:30.637Z,135
2018-06-13T06:22:39.280Z,130
2018-06-13T06:23:48.195Z,145
2018-06-13T06:24:56.844Z,150
2018-06-13T06:26:05.748Z,155
2018-06-13T06:27:14.395Z,160
2018-06-13T06:28:23.037Z,160
2018-06-13T06:29:31.685Z,160
2018-06-13T06:30:40.618Z,155
2018-06-13T06:31:49.545Z,140
2018-06-13T06:32:58.194Z,130
2018-06-13T06:34:06.835Z,140
2018-06-13T06:35:15.750Z,140
2018-06-13T06:36:24.395Z,150
2018-06-13T06:37:33.047Z,155
2018-06-13T06:38:41.689Z,155
2018-06-13T06:39:50.608Z,160
2018-06-13T06:40:59.524Z,160
2018-06-13T06:42:08.208Z,155
2018-06-13T06:43:16.832Z,160
2018-06-13T06:44:25.484Z,170
2018-06-13T06:45:34.128Z,175
2018-06-13T06:46:42.779Z,195
2018-06-13T06:47:51.423Z,205
2018-06-13T06:49:00.076Z,215
2018-06-13T06:50:08.993Z,225
2018-06-13T06:51:17.638Z,230
2018-06-13T06:52:26.288Z,235
2018-06-13T06:53:34.935Z,240
2018-06-13T06:54:43.580Z,245
2018-06-13T06:55:52.223Z,250
2018-06-13T06:57:00.878Z,250
2018-06-13T06:58:09.518Z,260
2018-06-13T06:59:18.164Z,250
2018-06-13T07:00:26.805Z,255
2018-06-13T07:01:35.455Z,265
2018-06-13T07:02:44.405Z,270
2018-06-13T07:03:53.367Z,250
2018-06-13T07:05:02.012Z,255
2018-06-13T07:06:10.920Z,275
2018-06-13T07:07:19.572Z,290
2018-06-13T07:08:28.219Z,280
2018-06-13T07:09:37.139Z,270
2018-06-13T07:10:45.781Z,250
2018-06-13T07:11:54.428Z,255
2018-06-13T07:13:03.336Z,285
2018-06-13T07:14:11.985Z,280
2018-06-13T07:15:20.625Z,265
2018-06-13T07:16:29.539Z,250
2018-06-13T07:17:38.181Z,250
2018-06-13T07:18:46.837Z,265
2018-06-13T07:19:55.473Z,235
2018-06-13T07:21:04.120Z,205
2018-06-13T07:22:13.030Z,200
2018-06-13T07:23:21.689Z,250
2018-06-13T07:24:30.332Z,255
2018-06-13T07:25:38.976Z,260
2018-06-13T07:26:47.667Z,220
2018-06-13T07:27:56.268Z,195
2018-06-13T07:29:05.185Z,205
2018-06-13T07:30:13.837Z,235
2018-06-13T07:31:22.752Z,250
2018-06-13T07:32:31.390Z,270
2018-06-13T07:33:40.105Z,275
2018-06-13T07:34:48.708Z,280
2018-06-13T07:35:57.371Z,250
2018-06-13T07:37:06.008Z,230
2018-06-13T07:38:14.667Z,215
2018-06-13T07:39:23.309Z,195
2018-06-13T07:40:32.223Z,165
2018-06-13T07:41:40.861Z,175
2018-06-13T07:42:49.512Z,180
2018-06-13T07:43:58.165Z,175
2018-06-13T07:45:07.086Z,190
2018-06-13T07:46:15.739Z,165
2018-06-13T07:47:24.382Z,155
2018-06-13T07:48:33.032Z,160
2018-06-13T07:49:41.690Z,160
2018-06-13T07:50:50.329Z,160
2018-06-13T07:51:58.968Z,170
2018-06-13T07:53:07.621Z,205
2018-06-13T07:54:16.263Z,235
2018-06-13T07:55:24.921Z,255
2018-06-13T07:56:33.838Z,260
2018-06-13T07:57:42.486Z,255
2018-06-13T07:58:51.133Z,245
2018-06-13T07:59:59.785Z,195
2018-06-13T08:01:08.433Z,175
2018-06-13T08:02:17.422Z,165
2018-06-13T08:03:26.032Z,170
2018-06-13T08:04:34.947Z,155
2018-06-13T08:05:43.601Z,120
2018-06-13T08:06:52.247Z,100
2018-06-13T08:08:01.171Z,120
2018-06-13T08:09:10.076Z,110
2018-06-13T08:10:18.731Z,85
2018-06-13T08:11:27.379Z,75
2018-06-13T08:12:36.294Z,70
2018-06-13T08:13:44.937Z,70
2018-06-13T08:14:53.592Z,70
2018-06-13T08:16:02.238Z,85
2018-06-13T08:17:10.887Z,95
2018-06-13T08:18:19.532Z,105
2018-06-13T08:19:28.180Z,105
2018-06-13T08:20:36.826Z,95
2018-06-13T08:21:45.476Z,95
2018-06-13T08:22:54.124Z,100
2018-06-13T08:24:02.767Z,100
2018-06-13T08:25:11.717Z,105
2018-06-13T08:26:20.366Z,120
2018-06-13T08:27:29.015Z,130
2018-06-13T08:28:37.657Z,135
2018-06-13T08:29:46.354Z,145
2018-06-13T08:30:55.118Z,160
2018-06-13T08:32:03.805Z,175
2018-06-13T08:33:12.447Z,180
2018-06-13T08:34:21.109Z,190
2018-06-13T08:35:30.016Z,190
2018-06-13T08:36:38.671Z,190
2018-06-13T08:37:47.313Z,185
2018-06-13T08:38:55.962Z,170
2018-06-13T08:40:04.603Z,175
2018-06-13T08:41:13.327Z,170
2018-06-13T08:42:22.267Z,160
2018-06-13T08:43:30.915Z,135
2018-06-13T08:44:39.560Z,125
2018-06-13T08:45:48.493Z,130
2018-06-13T08:46:57.554Z,115
2018-06-13T08:48:06.560Z,115
2018-06-13T08:49:15.235Z,120
2018-06-13T08:50:23.878Z,140
2018-06-13T08:51:32.814Z,175
2018-06-13T08:52:41.449Z,210
2018-06-13T08:53:50.097Z,260
2018-06-13T08:54:58.743Z,300
2018-06-13T08:56:07.405Z,330
2018-06-13T08:57:16.050Z,360
2018-06-13T08:58:24.969Z,375
2018-06-13T08:59:33.617Z,400
2018-06-13T09:00:42.258Z,400
2018-06-13T09:01:51.171Z,395
2018-06-13T09:02:59.844Z,380
2018-06-13T09:04:08.898Z,370
2018-06-13T09:05:17.682Z,345
2018-06-13T09:06:26.504Z,330
2018-06-13T09:07:35.420Z,330
2018-06-13T09:08:44.184Z,330
2018-06-13T09:09:52.911Z,320
2018-06-13T09:11:01.613Z,320
2018-06-13T09:12:10.557Z,310
2018-06-13T09:13:19.505Z,315
2018-06-13T09:14:28.152Z,315
2018-06-13T09:15:36.796Z,325
2018-06-13T09:16:45.446Z,330
2018-06-13T09:17:54.089Z,340
2018-06-13T09:19:02.746Z,350
2018-06-13T09:20:11.390Z,360
2018-06-13T09:21:20.042Z,370
2018-06-13T09:22:29.066Z,380
2018-06-13T09:23:37.995Z,385
2018-06-13T09:24:46.636Z,400
2018-06-13T09:25:55.290Z,405
2018-06-13T09:27:03.928Z,410
2018-06-13T09:28:12.847Z,420
2018-06-13T09:29:21.492Z,415
2018-06-13T09:30:30.142Z,415
2018-06-13T09:31:39.073Z,415
2018-06-13T09:32:47.985Z,410
2018-06-13T09:33:56.641Z,420
2018-06-13T09:35:05.555Z,435
2018-06-13T09:36:14.467Z,445
2018-06-13T09:37:23.155Z,445
2018-06-13T09:38:31.753Z,465
2018-06-13T09:39:40.397Z,465
2018-06-13T09:40:49.053Z,465
2018-06-13T09:41:57.693Z,445
2018-06-13T09:43:06.345Z,420
2018-06-13T09:44:14.990Z,375
2018-06-13T09:45:23.649Z,330
2018-06-13T09:46:32.291Z,315
2018-06-13T09:47:40.940Z,315
2018-06-13T09:48:49.587Z,330
2018-06-13T09:49:58.256Z,370
2018-06-13T09:51:06.890Z,390
2018-06-13T09:52:15.801Z,395
2018-06-13T09:53:24.448Z,405
2018-06-13T09:54:33.092Z,400
2018-06-13T09:55:41.756Z,405
2018-06-13T09:56:50.462Z,405
2018-06-13T09:57:59.055Z,400
2018-06-13T09:59:07.692Z,400
2018-06-13T10:00:16.351Z,400
2018-06-13T10:01:24.996Z,400
2018-06-13T10:02:33.649Z,375
2018-06-13T10:03:42.291Z,360
2018-06-13T10:04:51.684Z,365
2018-06-13T10:06:00.331Z,345
2018-06-13T10:07:08.982Z,325
2018-06-13T10:08:17.619Z,315
2018-06-13T10:09:26.270Z,315
2018-06-13T10:10:34.922Z,310
2018-06-13T10:11:43.609Z,300
2018-06-13T10:12:52.214Z,285
2018-06-13T10:14:01.140Z,285
2018-06-13T10:15:09.782Z,290
2018-06-13T10:16:18.435Z,305
2018-06-13T10:17:27.076Z,310
2018-06-13T10:18:35.760Z,305
2018-06-13T10:19:44.380Z,305
2018-06-13T10:20:53.564Z,310
2018-06-13T10:22:02.205Z,305
2018-06-13T10:23:10.865Z,310
2018-06-13T10:24:19.511Z,320
2018-06-13T10:25:29.083Z,340
2018-06-13T10:26:38.057Z,345
2018-06-13T10:27:46.908Z,330
2018-06-13T10:28:55.600Z,315
2018-06-13T10:30:04.211Z,310
2018-06-13T10:31:12.866Z,280
2018-06-13T10:32:21.771Z,280
2018-06-13T10:33:30.425Z,280
2018-06-13T10:34:39.070Z,290
2018-06-13T10:35:47.728Z,280
2018-06-13T10:36:56.368Z,275
2018-06-13T10:38:05.023Z,280
2018-06-13T10:39:13.670Z,305
2018-06-13T10:40:22.324Z,325
2018-06-13T10:41:31.229Z,325
2018-06-13T10:42:39.882Z,325
2018-06-13T10:43:48.528Z,340
2018-06-13T10:44:57.451Z,365
2018-06-13T10:46:06.095Z,385
2018-06-13T10:47:14.742Z,390
2018-06-13T10:48:23.440Z,375
2018-06-13T10:49:32.031Z,345
2018-06-13T10:50:40.695Z,300
2018-06-13T10:51:49.339Z,280
2018-06-13T10:52:57.995Z,320
2018-06-13T10:54:06.903Z,445
2018-06-13T10:55:15.561Z,490
2018-06-13T10:56:24.206Z,480
2018-06-13T10:57:32.859Z,485
2018-06-13T10:58:41.495Z,400
2018-06-13T10:59:50.421Z,390
2018-06-13T11:00:59.075Z,355
2018-06-13T11:02:07.727Z,300
2018-06-13T11:03:16.367Z,255
2018-06-13T11:04:25.294Z,195
2018-06-13T11:05:34.216Z,155
2018-06-13T11:06:42.877Z,135
2018-06-13T11:07:51.524Z,135
2018-06-13T11:09:00.164Z,135
2018-06-13T11:10:09.089Z,140
2018-06-13T11:11:18.008Z,150
2018-06-13T11:12:26.658Z,165
2018-06-13T11:13:35.303Z,185
2018-06-13T11:14:43.953Z,205
2018-06-13T11:15:52.599Z,215
2018-06-13T11:17:01.252Z,225
2018-06-13T11:18:09.896Z,225
2018-06-13T11:19:18.546Z,225
2018-06-13T11:20:27.243Z,220
2018-06-13T11:21:36.111Z,210
2018-06-13T11:22:44.756Z,210
2018-06-13T11:23:53.405Z,205
2018-06-13T11:25:02.052Z,215
2018-06-13T11:26:11.285Z,230
2018-06-13T11:27:19.892Z,240
2018-06-13T11:28:28.532Z,240
2018-06-13T11:29:37.179Z,245
2018-06-13T11:30:46.096Z,250
2018-06-13T11:31:54.746Z,255
2018-06-13T11:33:03.656Z,260
2018-06-13T11:34:12.307Z,265
2018-06-13T11:35:21.213Z,275
2018-06-13T11:36:29.866Z,285
2018-06-13T11:37:38.517Z,295
2018-06-13T11:38:47.164Z,310
2018-06-13T11:39:55.808Z,320
2018-06-13T11:41:04.458Z,335
2018-06-13T11:42:13.110Z,340
2018-06-13T11:43:21.761Z,350
2018-06-13T11:44:30.938Z,355
2018-06-13T11:45:39.585Z,355
2018-06-13T11:46:48.236Z,360
2018-06-13T11:47:57.148Z,370
2018-06-13T11:49:06.066Z,375
2018-06-13T11:50:14.719Z,380
2018-06-13T11:51:23.360Z,390
2018-06-13T11:52:32.288Z,400
2018-06-13T11:53:41.036Z,400
2018-06-13T11:54:49.586Z,405
2018-06-13T11:55:58.241Z,400
2018-06-13T11:57:06.890Z,390
2018-06-13T11:58:15.543Z,380
2018-06-13T11:59:24.187Z,385
2018-06-13T12:00:32.837Z,415
2018-06-13T12:01:41.572Z,450
2018-06-13T12:02:50.131Z,470
2018-06-13T12:03:58.788Z,570
2018-06-13T12:05:07.704Z,480
2018-06-13T12:06:16.687Z,420
2018-06-13T12:07:25.334Z,425
2018-06-13T12:08:33.984Z,350
2018-06-13T12:09:42.640Z,270
2018-06-13T12:10:51.581Z,240
2018-06-13T12:12:00.228Z,255
2018-06-13T12:13:09.134Z,280
2018-06-13T12:14:17.785Z,315
2018-06-13T12:15:26.435Z,335
2018-06-13T12:16:35.097Z,355
2018-06-13T12:17:43.744Z,375
2018-06-13T12:18:52.389Z,375
2018-06-13T12:20:01.036Z,380
2018-06-13T12:21:09.683Z,395
2018-06-13T12:22:18.344Z,400
2018-06-13T12:23:26.984Z,395
2018-06-13T12:24:35.640Z,380
2018-06-13T12:25:44.280Z,375
2018-06-13T12:26:53.204Z,360
2018-06-13T12:28:01.849Z,350
2018-06-13T12:29:10.503Z,350
2018-06-13T12:30:19.669Z,380
2018-06-13T12:31:28.327Z,405
2018-06-13T12:32:36.974Z,470
2018-06-13T12:33:45.885Z,435
2018-06-13T12:34:54.529Z,425
2018-06-13T12:36:03.179Z,395
2018-06-13T12:37:11.835Z,335
2018-06-13T12:38:20.488Z,295
2018-06-13T12:39:29.139Z,280
2018-06-13T12:40:37.779Z,275
2018-06-13T12:41:46.440Z,280
2018-06-13T12:42:55.086Z,270
2018-06-13T12:44:03.749Z,260
2018-06-13T12:45:12.391Z,265
2018-06-13T12:46:21.311Z,265
2018-06-13T12:47:29.956Z,250
2018-06-13T12:48:38.623Z,250
2018-06-13T12:49:47.262Z,255
2018-06-13T12:50:55.957Z,265
2018-06-13T12:52:04.560Z,270
2018-06-13T12:53:13.218Z,295
2018-06-13T12:54:21.864Z,315
2018-06-13T12:55:30.514Z,315
2018-06-13T12:56:39.424Z,315
2018-06-13T12:57:48.069Z,325
2018-06-13T12:58:57.137Z,330
2018-06-13T13:00:05.735Z,345
2018-06-13T13:01:14.390Z,355
2018-06-13T13:02:23.034Z,360
2018-06-13T13:03:31.692Z,365
2018-06-13T13:04:40.367Z,370
2018-06-13T13:05:48.997Z,375
2018-06-13T13:06:57.639Z,385
2018-06-13T13:08:06.564Z,395
2018-06-13T13:09:15.464Z,395
2018-06-13T13:10:24.118Z,425
2018-06-13T13:11:33.106Z,420
2018-06-13T13:12:41.737Z,410
2018-06-13T13:13:50.336Z,405
2018-06-13T13:14:58.994Z,405
2018-06-13T13:16:07.644Z,400
2018-06-13T13:17:16.557Z,405
2018-06-13T13:18:25.207Z,410
2018-06-13T13:19:33.855Z,410
2018-06-13T13:20:42.508Z,420
2018-06-13T13:21:51.153Z,415
2018-06-13T13:22:59.812Z,395
2018-06-13T13:24:08.993Z,375
2018-06-13T13:25:17.648Z,365
2018-06-13T13:26:26.292Z,370
2018-06-13T13:27:34.945Z,375
2018-06-13T13:28:43.858Z,375
2018-06-13T13:29:52.512Z,370
2018-06-13T13:31:01.159Z,360
2018-06-13T13:32:09.809Z,355
2018-06-13T13:33:18.456Z,370
2018-06-13T13:34:27.103Z,375
2018-06-13T13:35:35.799Z,385
2018-06-13T13:36:44.410Z,385
2018-06-13T13:37:53.059Z,375
2018-06-13T13:39:01.709Z,365
2018-06-13T13:40:10.407Z,365
2018-06-13T13:41:19.275Z,370
2018-06-13T13:42:28.191Z,360
2018-06-13T13:43:36.836Z,360
2018-06-13T13:44:45.492Z,350
2018-06-13T13:45:54.349Z,350
2018-06-13T13:47:02.796Z,355
2018-06-13T13:48:11.441Z,360
2018-06-13T13:49:20.092Z,360
2018-06-13T13:50:28.745Z,345
2018-06-13T13:51:37.404Z,325
2018-06-13T13:52:46.056Z,320
2018-06-13T13:53:54.779Z,350
2018-06-13T13:55:03.351Z,375
2018-06-13T13:56:12.002Z,350
2018-06-13T13:57:20.658Z,365
2018-06-13T13:58:29.305Z,375
2018-06-13T13:59:37.954Z,375
2018-06-13T14:00:46.607Z,360
2018-06-13T14:01:55.262Z,350
2018-06-13T14:03:03.908Z,290
2018-06-13T14:04:12.562Z,220
2018-06-13T14:05:21.215Z,205
2018-06-13T14:06:29.860Z,255
2018-06-13T14:07:38.511Z,285
2018-06-13T14:08:47.161Z,305
2018-06-13T14:09:56.076Z,360
2018-06-13T14:11:04.730Z,395
2018-06-13T14:12:13.386Z,420
2018-06-13T14:13:22.033Z,335
2018-06-13T14:14:30.679Z,315
2018-06-13T14:15:39.334Z,310
2018-06-13T14:16:47.983Z,300
2018-06-13T14:17:56.629Z,290
2018-06-13T14:19:05.281Z,290
2018-06-13T14:20:13.932Z,305
2018-06-13T14:21:22.577Z,315
2018-06-13T14:22:31.242Z,340
2018-06-13T14:23:39.880Z,335
2018-06-13T14:24:48.534Z,345
2018-06-13T14:25:57.189Z,340
2018-06-13T14:27:06.365Z,330
2018-06-13T14:28:15.274Z,320
2018-06-13T14:29:23.922Z,315
2018-06-13T14:30:32.576Z,315
2018-06-13T14:31:41.231Z,315
2018-06-13T14:32:49.878Z,330
2018-06-13T14:33:58.524Z,260
2018-06-13T14:35:07.453Z,205
2018-06-13T14:36:16.377Z,200
2018-06-13T14:37:25.604Z,185
2018-06-13T14:38:34.248Z,190
2018-06-13T14:39:42.901Z,195
2018-06-13T14:40:51.549Z,195
2018-06-13T14:42:00.231Z,195
2018-06-13T14:43:08.848Z,190
2018-06-13T14:44:17.501Z,185
2018-06-13T14:45:26.150Z,185
2018-06-13T14:46:34.804Z,175
2018-06-13T14:47:43.456Z,165
2018-06-13T14:48:52.105Z,170
2018-06-13T14:50:00.757Z,185
2018-06-13T14:51:09.409Z,200
2018-06-13T14:52:18.064Z,195
2018-06-13T14:53:26.708Z,190
2018-06-13T14:54:35.357Z,195
2018-06-13T14:55:44.006Z,210
2018-06-13T14:56:52.790Z,230
2018-06-13T14:58:01.566Z,240
2018-06-13T14:59:10.221Z,245
2018-06-13T15:00:18.868Z,255
2018-06-13T15:01:27.526Z,275
2018-06-13T15:02:36.169Z,300
2018-06-13T15:03:44.814Z,300
2018-06-13T15:04:53.460Z,300
2018-06-13T15:06:02.106Z,290
2018-06-13T15:07:10.764Z,290
2018-06-13T15:08:19.931Z,270
2018-06-13T15:09:28.496Z,260
2018-06-13T15:10:37.136Z,255
2018-06-13T15:11:45.793Z,250
2018-06-13T15:12:54.441Z,245
2018-06-13T15:14:03.088Z,245
2018-06-13T15:15:11.729Z,240
2018-06-13T15:16:20.667Z,235
2018-06-13T15:17:29.573Z,230
2018-06-13T15:18:38.229Z,220
2018-06-13T15:19:47.394Z,210
2018-06-13T15:20:56.315Z,205
2018-06-13T15:22:04.970Z,205
2018-06-13T15:23:13.628Z,205
2018-06-13T15:24:22.277Z,215
2018-06-13T15:25:30.918Z,235
2018-06-13T15:26:39.573Z,250
2018-06-13T15:27:48.482Z,255
2018-06-13T15:28:57.146Z,235
2018-06-13T15:30:05.788Z,220
2018-06-13T15:31:14.442Z,210
2018-06-13T15:32:23.087Z,210
2018-06-13T15:33:31.746Z,215
2018-06-13T15:34:40.388Z,215
2018-06-13T15:35:49.039Z,215
2018-06-13T15:36:57.688Z,210
2018-06-13T15:38:06.345Z,210
2018-06-13T15:39:14.993Z,210
2018-06-13T15:40:23.636Z,215
2018-06-13T15:41:32.285Z,210
2018-06-13T15:42:41.193Z,205
2018-06-13T15:43:49.850Z,205
2018-06-13T15:44:58.493Z,200
2018-06-13T15:46:07.146Z,200
2018-06-13T15:47:15.786Z,200
2018-06-13T15:48:24.443Z,210
2018-06-13T15:49:33.089Z,215
2018-06-13T15:50:41.741Z,215
2018-06-13T15:51:50.390Z,210
2018-06-13T15:52:59.049Z,220
2018-06-13T15:54:07.702Z,220
2018-06-13T15:55:16.349Z,225
2018-06-13T15:56:24.989Z,220
2018-06-13T15:57:33.641Z,225
2018-06-13T15:58:42.296Z,235
2018-06-13T15:59:50.949Z,235
2018-06-13T16:00:59.601Z,235
2018-06-13T16:02:08.239Z,230
2018-06-13T16:03:16.894Z,220
2018-06-13T16:04:25.813Z,215
2018-06-13T16:05:34.467Z,220